sensor_id;sensor_type;location;lat;lon;timestamp;temperature;humidity
74458;SHT31;62896;51.032;3.712;2022-12-11T00:00:58;1.8;94
74458;SHT31;62896;51.032;3.712;2022-12-11T00:04:18;1.8;94
74458;SHT31;62896;51.032;3.712;2022-12-11T00:07:38;1.8;94
74458;SHT31;62896;51.032;3.712;2022-12-11T00:10:58;1.8;94
74458;SHT31;62896;51.032;3.712;2022-12-11T00:14:18;1.8;94
74458;SHT31;62896;51.032;3.712;2022-12-11T00:17:38;1.7;94
74458;SHT31;62896;51.032;3.712;2022-12-11T00:20:58;1.7;94
74458;SHT31;62896;51.032;3.712;2022-12-11T00:24:18;1.7;94
74458;SHT31;62896;51.032;3.712;2022-12-11T00:27:38;1.7;94
74458;SHT31;62896;51.032;3.712;2022-12-11T00:30:58;1.7;94
74458;SHT31;62896;51.032;3.712;2022-12-11T00:34:18;1.7;94
74458;SHT31;62896;51.032;3.712;2022-12-11T00:37:38;1.8;94
74458;SHT31;62896;51.032;3.712;2022-12-11T00:40:58;1.8;94
74458;SHT31;62896;51.032;3.712;2022-12-11T00:44:18;1.8;94
74458;SHT31;62896;51.032;3.712;2022-12-11T00:47:38;1.8;93
74458;SHT31;62896;51.032;3.712;2022-12-11T00:50:58;1.8;93
74458;SHT31;62896;51.032;3.712;2022-12-11T00:54:18;1.8;93
74458;SHT31;62896;51.032;3.712;2022-12-11T00:57:38;1.8;93
74458;SHT31;62896;51.032;3.712;2022-12-11T01:01:03;1.8;93
74458;SHT31;62896;51.032;3.712;2022-12-11T01:04:18;1.8;93
74458;SHT31;62896;51.032;3.712;2022-12-11T01:07:38;1.9;93
74458;SHT31;62896;51.032;3.712;2022-12-11T01:11:00;1.9;93
74458;SHT31;62896;51.032;3.712;2022-12-11T01:14:18;1.9;93
74458;SHT31;62896;51.032;3.712;2022-12-11T01:17:38;1.9;93
74458;SHT31;62896;51.032;3.712;2022-12-11T01:20:58;1.9;93
74458;SHT31;62896;51.032;3.712;2022-12-11T01:24:18;1.9;93
74458;SHT31;62896;51.032;3.712;2022-12-11T01:27:38;1.8;93
74458;SHT31;62896;51.032;3.712;2022-12-11T01:30:58;1.8;93
74458;SHT31;62896;51.032;3.712;2022-12-11T01:34:18;1.8;93
74458;SHT31;62896;51.032;3.712;2022-12-11T01:37:38;1.8;93
74458;SHT31;62896;51.032;3.712;2022-12-11T01:40:58;1.8;93
74458;SHT31;62896;51.032;3.712;2022-12-11T01:45:24;1.8;93
74458;SHT31;62896;51.032;3.712;2022-12-11T01:47:38;1.7;93
74458;SHT31;62896;51.032;3.712;2022-12-11T01:50:59;1.7;93
74458;SHT31;62896;51.032;3.712;2022-12-11T01:54:19;1.7;93
74458;SHT31;62896;51.032;3.712;2022-12-11T01:57:38;1.7;93
74458;SHT31;62896;51.032;3.712;2022-12-11T02:00:58;1.7;93
74458;SHT31;62896;51.032;3.712;2022-12-11T02:04:18;1.7;93
74458;SHT31;62896;51.032;3.712;2022-12-11T02:07:39;1.7;93
74458;SHT31;62896;51.032;3.712;2022-12-11T02:11:00;1.7;93
74458;SHT31;62896;51.032;3.712;2022-12-11T02:14:19;1.7;93
74458;SHT31;62896;51.032;3.712;2022-12-11T02:17:39;1.8;93
74458;SHT31;62896;51.032;3.712;2022-12-11T02:20:59;1.8;93
74458;SHT31;62896;51.032;3.712;2022-12-11T02:24:23;1.8;93
74458;SHT31;62896;51.032;3.712;2022-12-11T02:27:39;1.8;93
74458;SHT31;62896;51.032;3.712;2022-12-11T02:30:59;1.8;93
74458;SHT31;62896;51.032;3.712;2022-12-11T02:34:19;1.8;93
74458;SHT31;62896;51.032;3.712;2022-12-11T02:37:39;1.8;93
74458;SHT31;62896;51.032;3.712;2022-12-11T02:40:58;1.8;93
74458;SHT31;62896;51.032;3.712;2022-12-11T02:44:19;1.8;93
74458;SHT31;62896;51.032;3.712;2022-12-11T02:47:38;1.8;93
74458;SHT31;62896;51.032;3.712;2022-12-11T02:50:58;1.8;93
74458;SHT31;62896;51.032;3.712;2022-12-11T02:54:18;1.8;93
74458;SHT31;62896;51.032;3.712;2022-12-11T02:57:38;1.9;92
74458;SHT31;62896;51.032;3.712;2022-12-11T03:00:58;1.9;92
74458;SHT31;62896;51.032;3.712;2022-12-11T03:04:18;1.9;92
74458;SHT31;62896;51.032;3.712;2022-12-11T03:07:39;1.9;92
74458;SHT31;62896;51.032;3.712;2022-12-11T03:10:58;1.9;92
74458;SHT31;62896;51.032;3.712;2022-12-11T03:14:18;1.9;92
74458;SHT31;62896;51.032;3.712;2022-12-11T03:17:40;2;92
74458;SHT31;62896;51.032;3.712;2022-12-11T03:21:00;2;92
74458;SHT31;62896;51.032;3.712;2022-12-11T03:24:19;2;92
74458;SHT31;62896;51.032;3.712;2022-12-11T03:27:39;2;92
74458;SHT31;62896;51.032;3.712;2022-12-11T03:30:59;2;92
74458;SHT31;62896;51.032;3.712;2022-12-11T03:34:18;2;92
74458;SHT31;62896;51.032;3.712;2022-12-11T03:37:38;1.9;92
74458;SHT31;62896;51.032;3.712;2022-12-11T03:40:59;1.9;92
74458;SHT31;62896;51.032;3.712;2022-12-11T03:44:18;1.9;92
74458;SHT31;62896;51.032;3.712;2022-12-11T03:47:38;1.9;92
74458;SHT31;62896;51.032;3.712;2022-12-11T03:50:58;1.9;92
74458;SHT31;62896;51.032;3.712;2022-12-11T03:54:18;1.9;92
74458;SHT31;62896;51.032;3.712;2022-12-11T03:57:38;2;92
74458;SHT31;62896;51.032;3.712;2022-12-11T04:00:58;2;92
74458;SHT31;62896;51.032;3.712;2022-12-11T04:04:18;2;92
74458;SHT31;62896;51.032;3.712;2022-12-11T04:07:38;2;92
74458;SHT31;62896;51.032;3.712;2022-12-11T04:10:58;2;92
74458;SHT31;62896;51.032;3.712;2022-12-11T04:14:18;2;92
74458;SHT31;62896;51.032;3.712;2022-12-11T04:17:38;2;92
74458;SHT31;62896;51.032;3.712;2022-12-11T04:20:58;2;92
74458;SHT31;62896;51.032;3.712;2022-12-11T04:24:18;2;92
74458;SHT31;62896;51.032;3.712;2022-12-11T04:27:38;2;92
74458;SHT31;62896;51.032;3.712;2022-12-11T04:30:58;2;92
74458;SHT31;62896;51.032;3.712;2022-12-11T04:34:18;2;92
74458;SHT31;62896;51.032;3.712;2022-12-11T04:37:38;2;92
74458;SHT31;62896;51.032;3.712;2022-12-11T04:40:58;2;92
74458;SHT31;62896;51.032;3.712;2022-12-11T04:44:18;2;92
74458;SHT31;62896;51.032;3.712;2022-12-11T04:47:39;2;92
74458;SHT31;62896;51.032;3.712;2022-12-11T04:50:58;2;92
74458;SHT31;62896;51.032;3.712;2022-12-11T04:54:18;2;92
74458;SHT31;62896;51.032;3.712;2022-12-11T04:57:38;2;92
74458;SHT31;62896;51.032;3.712;2022-12-11T05:00:58;2;92
74458;SHT31;62896;51.032;3.712;2022-12-11T05:04:18;2;92
74458;SHT31;62896;51.032;3.712;2022-12-11T05:07:38;2;92
74458;SHT31;62896;51.032;3.712;2022-12-11T05:10:59;2;92
74458;SHT31;62896;51.032;3.712;2022-12-11T05:14:18;2;92
74458;SHT31;62896;51.032;3.712;2022-12-11T05:17:38;2;91
74458;SHT31;62896;51.032;3.712;2022-12-11T05:20:59;2;91
74458;SHT31;62896;51.032;3.712;2022-12-11T05:24:18;2;91
74458;SHT31;62896;51.032;3.712;2022-12-11T05:27:38;1.9;92
74458;SHT31;62896;51.032;3.712;2022-12-11T05:30:59;1.9;92
74458;SHT31;62896;51.032;3.712;2022-12-11T05:34:18;1.9;92
74458;SHT31;62896;51.032;3.712;2022-12-11T05:37:38;2;91
74458;SHT31;62896;51.032;3.712;2022-12-11T05:40:59;2;91
74458;SHT31;62896;51.032;3.712;2022-12-11T05:44:18;2;91
74458;SHT31;62896;51.032;3.712;2022-12-11T05:47:38;1.9;92
74458;SHT31;62896;51.032;3.712;2022-12-11T05:50:58;1.9;92
74458;SHT31;62896;51.032;3.712;2022-12-11T05:54:18;1.9;92
74458;SHT31;62896;51.032;3.712;2022-12-11T05:57:38;2;91
74458;SHT31;62896;51.032;3.712;2022-12-11T06:00:58;2;91
74458;SHT31;62896;51.032;3.712;2022-12-11T06:04:18;2;91
74458;SHT31;62896;51.032;3.712;2022-12-11T06:07:38;1.9;91
74458;SHT31;62896;51.032;3.712;2022-12-11T06:10:58;1.9;91
74458;SHT31;62896;51.032;3.712;2022-12-11T06:14:18;1.9;91
74458;SHT31;62896;51.032;3.712;2022-12-11T06:17:38;2;91
74458;SHT31;62896;51.032;3.712;2022-12-11T06:20:58;2;91
74458;SHT31;62896;51.032;3.712;2022-12-11T06:24:18;2;91
74458;SHT31;62896;51.032;3.712;2022-12-11T06:27:38;2;91
74458;SHT31;62896;51.032;3.712;2022-12-11T06:30:58;2;91
74458;SHT31;62896;51.032;3.712;2022-12-11T06:34:18;2;91
74458;SHT31;62896;51.032;3.712;2022-12-11T06:37:38;2;91
74458;SHT31;62896;51.032;3.712;2022-12-11T06:40:59;2;91
74458;SHT31;62896;51.032;3.712;2022-12-11T06:44:18;2;91
74458;SHT31;62896;51.032;3.712;2022-12-11T06:47:38;2;90
74458;SHT31;62896;51.032;3.712;2022-12-11T06:50:58;2;90
74458;SHT31;62896;51.032;3.712;2022-12-11T06:54:18;2;90
74458;SHT31;62896;51.032;3.712;2022-12-11T06:57:38;2;90
74458;SHT31;62896;51.032;3.712;2022-12-11T07:00:58;2;90
74458;SHT31;62896;51.032;3.712;2022-12-11T07:04:18;2;90
74458;SHT31;62896;51.032;3.712;2022-12-11T07:07:38;1.9;89
74458;SHT31;62896;51.032;3.712;2022-12-11T07:11:01;1.9;89
74458;SHT31;62896;51.032;3.712;2022-12-11T07:14:18;1.9;89
74458;SHT31;62896;51.032;3.712;2022-12-11T07:17:38;1.8;89
74458;SHT31;62896;51.032;3.712;2022-12-11T07:20:58;1.8;89
74458;SHT31;62896;51.032;3.712;2022-12-11T07:24:18;1.8;89
74458;SHT31;62896;51.032;3.712;2022-12-11T07:27:38;1.8;89
74458;SHT31;62896;51.032;3.712;2022-12-11T07:30:58;1.8;89
74458;SHT31;62896;51.032;3.712;2022-12-11T07:34:18;1.8;89
74458;SHT31;62896;51.032;3.712;2022-12-11T07:37:39;1.8;89
74458;SHT31;62896;51.032;3.712;2022-12-11T07:40:59;1.8;89
74458;SHT31;62896;51.032;3.712;2022-12-11T07:44:18;1.8;89
74458;SHT31;62896;51.032;3.712;2022-12-11T07:47:38;1.7;88
74458;SHT31;62896;51.032;3.712;2022-12-11T07:51:06;1.7;88
74458;SHT31;62896;51.032;3.712;2022-12-11T07:54:18;1.7;88
74458;SHT31;62896;51.032;3.712;2022-12-11T07:57:38;1.6;88
74458;SHT31;62896;51.032;3.712;2022-12-11T08:00:58;1.6;88
74458;SHT31;62896;51.032;3.712;2022-12-11T08:04:18;1.6;88
74458;SHT31;62896;51.032;3.712;2022-12-11T08:07:38;1.6;88
74458;SHT31;62896;51.032;3.712;2022-12-11T08:10:59;1.6;88
74458;SHT31;62896;51.032;3.712;2022-12-11T08:14:18;1.6;88
74458;SHT31;62896;51.032;3.712;2022-12-11T08:17:38;1.7;88
74458;SHT31;62896;51.032;3.712;2022-12-11T08:20:58;1.7;88
74458;SHT31;62896;51.032;3.712;2022-12-11T08:24:18;1.7;88
74458;SHT31;62896;51.032;3.712;2022-12-11T08:27:38;1.8;88
74458;SHT31;62896;51.032;3.712;2022-12-11T08:30:58;1.8;88
74458;SHT31;62896;51.032;3.712;2022-12-11T08:34:18;1.8;88
74458;SHT31;62896;51.032;3.712;2022-12-11T08:37:38;1.7;87
74458;SHT31;62896;51.032;3.712;2022-12-11T08:40:58;1.7;87
74458;SHT31;62896;51.032;3.712;2022-12-11T08:44:18;1.7;87
74458;SHT31;62896;51.032;3.712;2022-12-11T08:47:38;1.7;87
74458;SHT31;62896;51.032;3.712;2022-12-11T08:50:58;1.7;87
74458;SHT31;62896;51.032;3.712;2022-12-11T08:54:18;1.7;87
74458;SHT31;62896;51.032;3.712;2022-12-11T08:57:38;1.8;87
74458;SHT31;62896;51.032;3.712;2022-12-11T09:00:58;1.8;87
74458;SHT31;62896;51.032;3.712;2022-12-11T09:04:18;1.8;87
74458;SHT31;62896;51.032;3.712;2022-12-11T09:07:38;1.8;87
74458;SHT31;62896;51.032;3.712;2022-12-11T09:11:01;1.8;87
74458;SHT31;62896;51.032;3.712;2022-12-11T09:14:18;1.8;87
74458;SHT31;62896;51.032;3.712;2022-12-11T09:17:38;1.9;87
74458;SHT31;62896;51.032;3.712;2022-12-11T09:20:59;1.9;87
74458;SHT31;62896;51.032;3.712;2022-12-11T09:24:18;1.9;87
74458;SHT31;62896;51.032;3.712;2022-12-11T09:27:38;1.9;87
74458;SHT31;62896;51.032;3.712;2022-12-11T09:30:58;1.9;87
74458;SHT31;62896;51.032;3.712;2022-12-11T09:34:19;1.9;87
74458;SHT31;62896;51.032;3.712;2022-12-11T09:37:38;1.9;88
74458;SHT31;62896;51.032;3.712;2022-12-11T09:40:58;1.9;88
74458;SHT31;62896;51.032;3.712;2022-12-11T09:44:20;1.9;88
74458;SHT31;62896;51.032;3.712;2022-12-11T09:47:39;1.9;87
74458;SHT31;62896;51.032;3.712;2022-12-11T09:50:58;1.9;87
74458;SHT31;62896;51.032;3.712;2022-12-11T09:54:18;1.9;87
74458;SHT31;62896;51.032;3.712;2022-12-11T09:57:41;1.8;86
74458;SHT31;62896;51.032;3.712;2022-12-11T10:01:00;1.8;86
74458;SHT31;62896;51.032;3.712;2022-12-11T10:04:23;1.8;86
74458;SHT31;62896;51.032;3.712;2022-12-11T10:07:40;1.9;86
74458;SHT31;62896;51.032;3.712;2022-12-11T10:11:00;1.9;86
74458;SHT31;62896;51.032;3.712;2022-12-11T10:14:20;1.9;86
74458;SHT31;62896;51.032;3.712;2022-12-11T10:17:38;1.9;87
74458;SHT31;62896;51.032;3.712;2022-12-11T10:21:00;1.9;87
74458;SHT31;62896;51.032;3.712;2022-12-11T10:24:19;1.9;87
74458;SHT31;62896;51.032;3.712;2022-12-11T10:27:39;2;86
74458;SHT31;62896;51.032;3.712;2022-12-11T10:31:00;2;86
74458;SHT31;62896;51.032;3.712;2022-12-11T10:34:19;2;86
74458;SHT31;62896;51.032;3.712;2022-12-11T10:37:38;1.9;85
74458;SHT31;62896;51.032;3.712;2022-12-11T10:40:59;1.9;85
74458;SHT31;62896;51.032;3.712;2022-12-11T10:44:19;1.9;85
74458;SHT31;62896;51.032;3.712;2022-12-11T10:47:38;1.9;85
74458;SHT31;62896;51.032;3.712;2022-12-11T10:50:59;1.9;85
74458;SHT31;62896;51.032;3.712;2022-12-11T10:54:25;1.9;85
74458;SHT31;62896;51.032;3.712;2022-12-11T10:57:38;1.8;85
74458;SHT31;62896;51.032;3.712;2022-12-11T11:01:03;1.8;85
74458;SHT31;62896;51.032;3.712;2022-12-11T11:04:19;1.8;85
74458;SHT31;62896;51.032;3.712;2022-12-11T11:07:38;2;85
74458;SHT31;62896;51.032;3.712;2022-12-11T11:10:59;2;85
74458;SHT31;62896;51.032;3.712;2022-12-11T11:14:19;2;85
74458;SHT31;62896;51.032;3.712;2022-12-11T11:17:41;2;85
74458;SHT31;62896;51.032;3.712;2022-12-11T11:20:58;2;85
74458;SHT31;62896;51.032;3.712;2022-12-11T11:24:23;2;85
74458;SHT31;62896;51.032;3.712;2022-12-11T11:27:39;2;85
74458;SHT31;62896;51.032;3.712;2022-12-11T11:30:59;2;85
74458;SHT31;62896;51.032;3.712;2022-12-11T11:34:19;2;85
74458;SHT31;62896;51.032;3.712;2022-12-11T11:37:39;1.9;86
74458;SHT31;62896;51.032;3.712;2022-12-11T11:41:00;1.9;86
74458;SHT31;62896;51.032;3.712;2022-12-11T11:44:19;1.9;86
74458;SHT31;62896;51.032;3.712;2022-12-11T11:47:40;1.9;86
74458;SHT31;62896;51.032;3.712;2022-12-11T11:50:58;1.9;86
74458;SHT31;62896;51.032;3.712;2022-12-11T11:54:20;1.9;86
74458;SHT31;62896;51.032;3.712;2022-12-11T11:57:40;1.8;86
74458;SHT31;62896;51.032;3.712;2022-12-11T12:00:58;1.8;86
74458;SHT31;62896;51.032;3.712;2022-12-11T12:04:18;1.8;86
74458;SHT31;62896;51.032;3.712;2022-12-11T12:07:39;1.8;86
74458;SHT31;62896;51.032;3.712;2022-12-11T12:11:00;1.8;86
74458;SHT31;62896;51.032;3.712;2022-12-11T12:14:19;1.8;86
74458;SHT31;62896;51.032;3.712;2022-12-11T12:17:40;1.8;86
74458;SHT31;62896;51.032;3.712;2022-12-11T12:20:59;1.8;86
74458;SHT31;62896;51.032;3.712;2022-12-11T12:24:22;1.8;86
74458;SHT31;62896;51.032;3.712;2022-12-11T12:27:39;1.8;86
74458;SHT31;62896;51.032;3.712;2022-12-11T12:31:03;1.8;86
74458;SHT31;62896;51.032;3.712;2022-12-11T12:34:21;1.8;86
74458;SHT31;62896;51.032;3.712;2022-12-11T12:37:43;1.8;86
74458;SHT31;62896;51.032;3.712;2022-12-11T12:41:00;1.8;86
74458;SHT31;62896;51.032;3.712;2022-12-11T12:44:19;1.8;86
74458;SHT31;62896;51.032;3.712;2022-12-11T12:47:38;1.8;86
74458;SHT31;62896;51.032;3.712;2022-12-11T12:50:58;1.8;86
74458;SHT31;62896;51.032;3.712;2022-12-11T12:54:18;1.8;86
74458;SHT31;62896;51.032;3.712;2022-12-11T12:57:38;1.9;86
74458;SHT31;62896;51.032;3.712;2022-12-11T13:01:06;1.9;86
74458;SHT31;62896;51.032;3.712;2022-12-11T13:04:35;1.9;86
74458;SHT31;62896;51.032;3.712;2022-12-11T13:07:38;1.9;86
74458;SHT31;62896;51.032;3.712;2022-12-11T13:10:59;1.9;86
74458;SHT31;62896;51.032;3.712;2022-12-11T13:14:24;1.9;86
74458;SHT31;62896;51.032;3.712;2022-12-11T13:17:38;1.8;86
74458;SHT31;62896;51.032;3.712;2022-12-11T13:20:59;1.8;86
74458;SHT31;62896;51.032;3.712;2022-12-11T13:24:23;1.8;86
74458;SHT31;62896;51.032;3.712;2022-12-11T13:27:39;1.8;87
74458;SHT31;62896;51.032;3.712;2022-12-11T13:30:59;1.8;87
74458;SHT31;62896;51.032;3.712;2022-12-11T13:34:19;1.8;87
74458;SHT31;62896;51.032;3.712;2022-12-11T13:37:39;1.8;86
74458;SHT31;62896;51.032;3.712;2022-12-11T13:40:58;1.8;86
74458;SHT31;62896;51.032;3.712;2022-12-11T13:44:20;1.8;86
74458;SHT31;62896;51.032;3.712;2022-12-11T13:47:38;1.8;87
74458;SHT31;62896;51.032;3.712;2022-12-11T13:50:58;1.8;87
74458;SHT31;62896;51.032;3.712;2022-12-11T13:54:18;1.8;87
74458;SHT31;62896;51.032;3.712;2022-12-11T13:57:43;1.7;87
74458;SHT31;62896;51.032;3.712;2022-12-11T14:01:01;1.7;87
74458;SHT31;62896;51.032;3.712;2022-12-11T14:04:18;1.7;87
74458;SHT31;62896;51.032;3.712;2022-12-11T14:07:40;1.7;87
74458;SHT31;62896;51.032;3.712;2022-12-11T14:10:58;1.7;87
74458;SHT31;62896;51.032;3.712;2022-12-11T14:14:19;1.7;87
74458;SHT31;62896;51.032;3.712;2022-12-11T14:17:38;1.7;87
74458;SHT31;62896;51.032;3.712;2022-12-11T14:20:59;1.7;87
74458;SHT31;62896;51.032;3.712;2022-12-11T14:24:18;1.7;87
74458;SHT31;62896;51.032;3.712;2022-12-11T14:27:45;1.7;87
74458;SHT31;62896;51.032;3.712;2022-12-11T14:30:58;1.7;87
74458;SHT31;62896;51.032;3.712;2022-12-11T14:34:20;1.7;87
74458;SHT31;62896;51.032;3.712;2022-12-11T14:37:38;1.8;87
74458;SHT31;62896;51.032;3.712;2022-12-11T14:41:00;1.8;87
74458;SHT31;62896;51.032;3.712;2022-12-11T14:44:19;1.8;87
74458;SHT31;62896;51.032;3.712;2022-12-11T14:47:40;1.7;87
74458;SHT31;62896;51.032;3.712;2022-12-11T14:50:59;1.7;87
74458;SHT31;62896;51.032;3.712;2022-12-11T14:54:20;1.7;87
74458;SHT31;62896;51.032;3.712;2022-12-11T14:57:39;1.7;86
74458;SHT31;62896;51.032;3.712;2022-12-11T15:00:59;1.7;86
74458;SHT31;62896;51.032;3.712;2022-12-11T15:04:21;1.7;86
74458;SHT31;62896;51.032;3.712;2022-12-11T15:07:39;1.7;86
74458;SHT31;62896;51.032;3.712;2022-12-11T15:11:00;1.7;86
74458;SHT31;62896;51.032;3.712;2022-12-11T15:14:18;1.7;86
74458;SHT31;62896;51.032;3.712;2022-12-11T15:17:38;1.7;87
74458;SHT31;62896;51.032;3.712;2022-12-11T15:21:00;1.7;87
74458;SHT31;62896;51.032;3.712;2022-12-11T15:24:21;1.7;87
74458;SHT31;62896;51.032;3.712;2022-12-11T15:27:38;1.9;87
74458;SHT31;62896;51.032;3.712;2022-12-11T15:31:00;1.9;87
74458;SHT31;62896;51.032;3.712;2022-12-11T15:34:20;1.9;87
74458;SHT31;62896;51.032;3.712;2022-12-11T15:37:38;1.7;86
74458;SHT31;62896;51.032;3.712;2022-12-11T15:40:59;1.7;86
74458;SHT31;62896;51.032;3.712;2022-12-11T15:44:19;1.7;86
74458;SHT31;62896;51.032;3.712;2022-12-11T15:47:38;1.7;87
74458;SHT31;62896;51.032;3.712;2022-12-11T15:50:58;1.7;87
74458;SHT31;62896;51.032;3.712;2022-12-11T15:54:18;1.7;87
74458;SHT31;62896;51.032;3.712;2022-12-11T15:57:38;1.7;86
74458;SHT31;62896;51.032;3.712;2022-12-11T16:00:58;1.7;86
74458;SHT31;62896;51.032;3.712;2022-12-11T16:04:18;1.7;86
74458;SHT31;62896;51.032;3.712;2022-12-11T16:07:39;1.7;86
74458;SHT31;62896;51.032;3.712;2022-12-11T16:10:58;1.7;86
74458;SHT31;62896;51.032;3.712;2022-12-11T16:14:18;1.7;86
74458;SHT31;62896;51.032;3.712;2022-12-11T16:17:39;1.6;85
74458;SHT31;62896;51.032;3.712;2022-12-11T16:21:02;1.6;85
74458;SHT31;62896;51.032;3.712;2022-12-11T16:24:18;1.6;85
74458;SHT31;62896;51.032;3.712;2022-12-11T16:27:38;1.6;86
74458;SHT31;62896;51.032;3.712;2022-12-11T16:30:58;1.6;86
74458;SHT31;62896;51.032;3.712;2022-12-11T16:34:23;1.6;86
74458;SHT31;62896;51.032;3.712;2022-12-11T16:37:38;1.6;86
74458;SHT31;62896;51.032;3.712;2022-12-11T16:40:59;1.6;86
74458;SHT31;62896;51.032;3.712;2022-12-11T16:44:19;1.6;86
74458;SHT31;62896;51.032;3.712;2022-12-11T16:47:38;1.6;86
74458;SHT31;62896;51.032;3.712;2022-12-11T16:50:58;1.6;86
74458;SHT31;62896;51.032;3.712;2022-12-11T16:54:18;1.6;86
74458;SHT31;62896;51.032;3.712;2022-12-11T16:57:38;1.6;86
74458;SHT31;62896;51.032;3.712;2022-12-11T17:00:58;1.6;86
74458;SHT31;62896;51.032;3.712;2022-12-11T17:04:18;1.6;86
74458;SHT31;62896;51.032;3.712;2022-12-11T17:07:38;1.5;86
74458;SHT31;62896;51.032;3.712;2022-12-11T17:10:58;1.5;86
74458;SHT31;62896;51.032;3.712;2022-12-11T17:14:18;1.5;86
74458;SHT31;62896;51.032;3.712;2022-12-11T17:17:38;1.5;86
74458;SHT31;62896;51.032;3.712;2022-12-11T17:20:59;1.5;86
74458;SHT31;62896;51.032;3.712;2022-12-11T17:24:19;1.5;86
74458;SHT31;62896;51.032;3.712;2022-12-11T17:27:38;1.3;86
74458;SHT31;62896;51.032;3.712;2022-12-11T17:30:58;1.3;86
74458;SHT31;62896;51.032;3.712;2022-12-11T17:34:18;1.3;86
74458;SHT31;62896;51.032;3.712;2022-12-11T17:37:38;1.1;87
74458;SHT31;62896;51.032;3.712;2022-12-11T17:40:58;1.1;87
74458;SHT31;62896;51.032;3.712;2022-12-11T17:44:18;1.1;87
74458;SHT31;62896;51.032;3.712;2022-12-11T17:47:38;0.9;87
74458;SHT31;62896;51.032;3.712;2022-12-11T17:51:01;0.9;87
74458;SHT31;62896;51.032;3.712;2022-12-11T17:54:18;0.9;87
74458;SHT31;62896;51.032;3.712;2022-12-11T17:57:38;1;87
74458;SHT31;62896;51.032;3.712;2022-12-11T18:00:59;1;87
74458;SHT31;62896;51.032;3.712;2022-12-11T18:04:18;1;87
74458;SHT31;62896;51.032;3.712;2022-12-11T18:07:38;1.1;86
74458;SHT31;62896;51.032;3.712;2022-12-11T18:11:02;1.1;86
74458;SHT31;62896;51.032;3.712;2022-12-11T18:14:18;1.1;86
74458;SHT31;62896;51.032;3.712;2022-12-11T18:17:39;1.2;86
74458;SHT31;62896;51.032;3.712;2022-12-11T18:20:59;1.2;86
74458;SHT31;62896;51.032;3.712;2022-12-11T18:24:19;1.2;86
74458;SHT31;62896;51.032;3.712;2022-12-11T18:27:38;1.2;86
74458;SHT31;62896;51.032;3.712;2022-12-11T18:30:59;1.2;86
74458;SHT31;62896;51.032;3.712;2022-12-11T18:34:18;1.2;86
74458;SHT31;62896;51.032;3.712;2022-12-11T18:37:39;1.2;86
74458;SHT31;62896;51.032;3.712;2022-12-11T18:41:00;1.2;86
74458;SHT31;62896;51.032;3.712;2022-12-11T18:44:18;1.2;86
74458;SHT31;62896;51.032;3.712;2022-12-11T18:47:38;1.2;86
74458;SHT31;62896;51.032;3.712;2022-12-11T18:50:58;1.2;86
74458;SHT31;62896;51.032;3.712;2022-12-11T18:54:18;1.2;86
74458;SHT31;62896;51.032;3.712;2022-12-11T18:57:38;1.1;85
74458;SHT31;62896;51.032;3.712;2022-12-11T19:01:03;1.1;85
74458;SHT31;62896;51.032;3.712;2022-12-11T19:04:19;1.1;85
74458;SHT31;62896;51.032;3.712;2022-12-11T19:07:38;1.1;86
74458;SHT31;62896;51.032;3.712;2022-12-11T19:10:58;1.1;86
74458;SHT31;62896;51.032;3.712;2022-12-11T19:14:19;1.1;86
74458;SHT31;62896;51.032;3.712;2022-12-11T19:17:39;1.1;86
74458;SHT31;62896;51.032;3.712;2022-12-11T19:20:58;1.1;86
74458;SHT31;62896;51.032;3.712;2022-12-11T19:24:20;1.1;86
74458;SHT31;62896;51.032;3.712;2022-12-11T19:27:39;1.1;86
74458;SHT31;62896;51.032;3.712;2022-12-11T19:30:59;1.1;86
74458;SHT31;62896;51.032;3.712;2022-12-11T19:34:19;1.1;86
74458;SHT31;62896;51.032;3.712;2022-12-11T19:37:39;0.9;86
74458;SHT31;62896;51.032;3.712;2022-12-11T19:41:02;0.9;86
74458;SHT31;62896;51.032;3.712;2022-12-11T19:44:19;0.9;86
74458;SHT31;62896;51.032;3.712;2022-12-11T19:47:39;1;86
74458;SHT31;62896;51.032;3.712;2022-12-11T19:51:01;1;86
74458;SHT31;62896;51.032;3.712;2022-12-11T19:54:19;1;86
74458;SHT31;62896;51.032;3.712;2022-12-11T19:57:39;0.9;86
74458;SHT31;62896;51.032;3.712;2022-12-11T20:00:59;0.9;86
74458;SHT31;62896;51.032;3.712;2022-12-11T20:04:19;0.9;86
74458;SHT31;62896;51.032;3.712;2022-12-11T20:07:39;0.7;86
74458;SHT31;62896;51.032;3.712;2022-12-11T20:11:01;0.7;86
74458;SHT31;62896;51.032;3.712;2022-12-11T20:14:20;0.7;86
74458;SHT31;62896;51.032;3.712;2022-12-11T20:17:39;0.5;87
74458;SHT31;62896;51.032;3.712;2022-12-11T20:20:59;0.5;87
74458;SHT31;62896;51.032;3.712;2022-12-11T20:24:19;0.5;87
74458;SHT31;62896;51.032;3.712;2022-12-11T20:27:39;0.4;88
74458;SHT31;62896;51.032;3.712;2022-12-11T20:31:02;0.4;88
74458;SHT31;62896;51.032;3.712;2022-12-11T20:34:19;0.4;88
74458;SHT31;62896;51.032;3.712;2022-12-11T20:37:39;0.3;88
74458;SHT31;62896;51.032;3.712;2022-12-11T20:40:59;0.3;88
74458;SHT31;62896;51.032;3.712;2022-12-11T20:44:19;0.3;88
74458;SHT31;62896;51.032;3.712;2022-12-11T20:47:39;0.3;88
74458;SHT31;62896;51.032;3.712;2022-12-11T20:50:59;0.3;88
74458;SHT31;62896;51.032;3.712;2022-12-11T20:54:19;0.3;88
74458;SHT31;62896;51.032;3.712;2022-12-11T20:57:39;0.3;88
74458;SHT31;62896;51.032;3.712;2022-12-11T21:00:59;0.3;88
74458;SHT31;62896;51.032;3.712;2022-12-11T21:04:19;0.3;88
74458;SHT31;62896;51.032;3.712;2022-12-11T21:07:39;0.4;88
74458;SHT31;62896;51.032;3.712;2022-12-11T21:10:59;0.4;88
74458;SHT31;62896;51.032;3.712;2022-12-11T21:14:19;0.4;88
74458;SHT31;62896;51.032;3.712;2022-12-11T21:17:39;0.5;87
74458;SHT31;62896;51.032;3.712;2022-12-11T21:20:59;0.5;87
74458;SHT31;62896;51.032;3.712;2022-12-11T21:24:20;0.5;87
74458;SHT31;62896;51.032;3.712;2022-12-11T21:27:39;0.6;87
74458;SHT31;62896;51.032;3.712;2022-12-11T21:30:59;0.6;87
74458;SHT31;62896;51.032;3.712;2022-12-11T21:34:19;0.6;87
74458;SHT31;62896;51.032;3.712;2022-12-11T21:37:39;0.6;87
74458;SHT31;62896;51.032;3.712;2022-12-11T21:41:04;0.6;87
74458;SHT31;62896;51.032;3.712;2022-12-11T21:44:19;0.6;87
74458;SHT31;62896;51.032;3.712;2022-12-11T21:47:39;0.4;87
74458;SHT31;62896;51.032;3.712;2022-12-11T21:51:05;0.4;87
74458;SHT31;62896;51.032;3.712;2022-12-11T21:54:19;0.4;87
74458;SHT31;62896;51.032;3.712;2022-12-11T21:57:39;0.3;88
74458;SHT31;62896;51.032;3.712;2022-12-11T22:00:59;0.3;88
74458;SHT31;62896;51.032;3.712;2022-12-11T22:04:19;0.3;88
74458;SHT31;62896;51.032;3.712;2022-12-11T22:07:39;0.1;88
74458;SHT31;62896;51.032;3.712;2022-12-11T22:10:59;0.1;88
74458;SHT31;62896;51.032;3.712;2022-12-11T22:14:19;0.1;88
74458;SHT31;62896;51.032;3.712;2022-12-11T22:47:39;0.1;88
74458;SHT31;62896;51.032;3.712;2022-12-11T22:51:02;0.1;88
74458;SHT31;62896;51.032;3.712;2022-12-11T22:54:19;0.1;88
